createdAt,value
2017-04-19T00:09:21.000Z,34.9
2017-04-19T00:19:21.000Z,34.2
2017-04-19T00:29:21.000Z,34.1
2017-04-19T00:49:21.000Z,34.3
2017-04-19T01:09:21.000Z,33.7
2017-04-19T01:19:21.000Z,33.7
2017-04-19T01:29:21.000Z,33.5
2017-04-19T01:49:22.000Z,32.8
2017-04-19T02:09:22.000Z,33.5
2017-04-19T02:19:23.000Z,33.8
2017-04-19T02:29:22.000Z,34.5
2017-04-19T02:49:22.000Z,33.8
2017-04-19T03:09:22.000Z,34.2
2017-04-19T03:19:22.000Z,34.4
2017-04-19T03:29:22.000Z,34.4
2017-04-19T03:49:22.000Z,34.6
2017-04-19T04:09:22.000Z,35.5
2017-04-19T04:19:22.000Z,34.5
2017-04-19T04:29:22.000Z,34.7
2017-04-19T04:49:22.000Z,34
2017-04-19T05:09:22.000Z,34.3
2017-04-19T05:19:22.000Z,33.8
2017-04-19T05:29:22.000Z,34.2
2017-04-19T05:49:22.000Z,35.2
2017-04-19T06:09:22.000Z,35.2
2017-04-19T06:19:22.000Z,35.2
2017-04-19T06:29:22.000Z,36.2
2017-04-19T06:49:22.000Z,41.7
2017-04-19T07:09:22.000Z,47.4
2017-04-19T07:19:22.000Z,48.2
2017-04-19T07:29:22.000Z,48.3
2017-04-19T07:39:22.000Z,48.6
2017-04-19T07:49:22.000Z,48.2
2017-04-19T08:09:22.000Z,49.8
2017-04-19T08:29:22.000Z,49.9
2017-04-19T08:39:22.000Z,49.9
2017-04-19T08:49:23.000Z,50
2017-04-19T09:09:22.000Z,50.2
2017-04-19T09:29:23.000Z,50.3
2017-04-19T09:39:23.000Z,50.6
2017-04-19T09:49:23.000Z,50.2
2017-04-19T10:09:23.000Z,50.4
2017-04-19T10:29:23.000Z,50.8
2017-04-19T10:39:23.000Z,50.7
2017-04-19T10:49:23.000Z,50.7
2017-04-19T12:09:30.000Z,51.4
2017-04-19T12:19:27.000Z,51.6
2017-04-19T12:39:26.000Z,51.4
2017-04-19T12:49:26.000Z,51.4
2017-04-19T13:09:26.000Z,51.6
2017-04-19T13:19:26.000Z,51.7
2017-04-19T13:29:26.000Z,51.5
2017-04-19T13:39:26.000Z,51.6
2017-04-19T13:49:26.000Z,47.3
2017-04-19T13:59:26.000Z,51.4
2017-04-19T14:09:26.000Z,52
2017-04-19T14:19:26.000Z,52.2
2017-04-19T14:29:26.000Z,53.2
2017-04-19T14:39:26.000Z,53.6
2017-04-19T14:49:26.000Z,53.5
2017-04-19T14:59:26.000Z,53.1
2017-04-19T15:09:26.000Z,53.4
2017-04-19T15:19:26.000Z,53.3
2017-04-19T15:29:26.000Z,56.2
2017-04-19T15:39:26.000Z,55.6
2017-04-19T15:49:26.000Z,58
2017-04-19T15:59:26.000Z,58.1
2017-04-19T16:09:26.000Z,58.6
2017-04-19T16:19:26.000Z,57.2
2017-04-19T16:39:26.000Z,56.6
2017-04-19T16:49:26.000Z,56.3
2017-04-19T16:59:26.000Z,55.8
2017-04-19T17:09:26.000Z,55.8
2017-04-19T17:19:26.000Z,55.2
2017-04-19T17:29:26.000Z,55.9
2017-04-19T17:39:26.000Z,56.5
2017-04-19T17:49:26.000Z,54.9
2017-04-19T17:59:26.000Z,53.7
2017-04-19T18:09:26.000Z,53
2017-04-19T18:19:26.000Z,52.4
2017-04-19T18:29:28.000Z,53.1
2017-04-19T18:49:26.000Z,53.4
2017-04-19T18:59:26.000Z,53.5
2017-04-19T19:09:27.000Z,53.5
2017-04-19T19:19:29.000Z,53.6
2017-04-19T19:29:27.000Z,53.6
2017-04-19T19:39:27.000Z,53.7
2017-04-19T19:49:27.000Z,53.6
2017-04-19T19:59:27.000Z,53.8
2017-04-19T20:09:27.000Z,53.6
2017-04-19T20:19:27.000Z,53.6
2017-04-19T20:29:27.000Z,53.6
2017-04-19T20:39:27.000Z,53.6
2017-04-19T20:49:27.000Z,53.7
2017-04-19T20:59:27.000Z,53.5
2017-04-19T21:19:27.000Z,32.3
2017-04-19T21:29:27.000Z,31.9
2017-04-19T21:39:28.000Z,31.6
2017-04-19T21:59:27.000Z,31
2017-04-19T22:19:27.000Z,30.8
2017-04-19T22:29:27.000Z,30.8
2017-04-19T22:39:27.000Z,30.9
2017-04-19T22:59:27.000Z,31.2
2017-04-19T23:19:27.000Z,31.7
2017-04-19T23:29:27.000Z,33.4
2017-04-19T23:39:27.000Z,31.8
2017-04-19T23:59:27.000Z,31.7
